sensor_id;sensor_type;location;lat;lon;timestamp;pressure;altitude;pressure_sealevel;temperature;humidity
20350;BME280;10332;50.208;18.988;2023-05-03T00:00:53;98655.13;;;14.98;85.83
20350;BME280;10332;50.208;18.988;2023-05-03T00:03:20;98647.97;;;14.89;85.63
20350;BME280;10332;50.208;18.988;2023-05-03T00:05:49;98648.66;;;14.91;85.68
20350;BME280;10332;50.208;18.988;2023-05-03T00:08:17;98647.00;;;14.90;85.68
20350;BME280;10332;50.208;18.988;2023-05-03T00:10:44;98643.06;;;14.85;85.52
20350;BME280;10332;50.208;18.988;2023-05-03T00:13:12;98646.75;;;14.82;85.64
20350;BME280;10332;50.208;18.988;2023-05-03T00:15:39;98638.50;;;14.75;85.67
20350;BME280;10332;50.208;18.988;2023-05-03T00:18:07;98637.78;;;14.73;85.39
20350;BME280;10332;50.208;18.988;2023-05-03T00:20:34;98636.09;;;14.72;85.08
20350;BME280;10332;50.208;18.988;2023-05-03T00:23:02;98639.47;;;14.74;84.91
20350;BME280;10332;50.208;18.988;2023-05-03T00:25:31;98631.59;;;14.74;84.54
20350;BME280;10332;50.208;18.988;2023-05-03T00:27:58;98641.50;;;14.82;84.20
20350;BME280;10332;50.208;18.988;2023-05-03T00:30:25;98638.88;;;14.82;84.05
20350;BME280;10332;50.208;18.988;2023-05-03T00:32:53;98642.09;;;14.74;83.94
20350;BME280;10332;50.208;18.988;2023-05-03T00:35:20;98633.72;;;14.69;83.85
20350;BME280;10332;50.208;18.988;2023-05-03T00:37:48;98636.84;;;14.74;83.59
20350;BME280;10332;50.208;18.988;2023-05-03T00:40:15;98638.63;;;14.74;83.36
20350;BME280;10332;50.208;18.988;2023-05-03T00:42:45;98632.03;;;14.68;83.04
20350;BME280;10332;50.208;18.988;2023-05-03T00:45:12;98633.47;;;14.72;82.80
20350;BME280;10332;50.208;18.988;2023-05-03T00:47:40;98636.00;;;14.74;82.65
20350;BME280;10332;50.208;18.988;2023-05-03T00:50:08;98634.56;;;14.70;82.77
20350;BME280;10332;50.208;18.988;2023-05-03T00:52:39;98631.66;;;14.62;82.25
20350;BME280;10332;50.208;18.988;2023-05-03T00:55:09;98633.22;;;14.64;82.06
20350;BME280;10332;50.208;18.988;2023-05-03T00:57:36;98632.03;;;14.68;81.87
20350;BME280;10332;50.208;18.988;2023-05-03T01:00:04;98623.09;;;14.71;81.93
20350;BME280;10332;50.208;18.988;2023-05-03T01:02:34;98630.63;;;14.75;81.64
20350;BME280;10332;50.208;18.988;2023-05-03T01:05:02;98631.59;;;14.74;81.86
20350;BME280;10332;50.208;18.988;2023-05-03T01:07:48;98641.47;;;14.71;81.94
20350;BME280;10332;50.208;18.988;2023-05-03T01:18:48;98649.88;;;14.76;83.04
20350;BME280;10332;50.208;18.988;2023-05-03T01:21:18;98645.31;;;14.78;83.25
20350;BME280;10332;50.208;18.988;2023-05-03T01:24:17;98641.84;;;14.77;83.80
20350;BME280;10332;50.208;18.988;2023-05-03T01:26:44;98643.41;;;14.80;84.13
20350;BME280;10332;50.208;18.988;2023-05-03T01:29:13;98645.31;;;14.78;83.82
20350;BME280;10332;50.208;18.988;2023-05-03T01:31:53;98644.09;;;14.71;83.66
20350;BME280;10332;50.208;18.988;2023-05-03T01:34:47;98642.31;;;14.71;83.77
20350;BME280;10332;50.208;18.988;2023-05-03T01:37:17;98649.38;;;14.71;83.78
20350;BME280;10332;50.208;18.988;2023-05-03T01:39:59;98647.81;;;14.68;83.67
20350;BME280;10332;50.208;18.988;2023-05-03T01:42:30;98652.94;;;14.70;83.59
20350;BME280;10332;50.208;18.988;2023-05-03T01:44:59;98648.19;;;14.75;83.66
20350;BME280;10332;50.208;18.988;2023-05-03T01:47:29;98650.91;;;14.73;83.88
20350;BME280;10332;50.208;18.988;2023-05-03T01:49:57;98641.03;;;14.77;83.96
20350;BME280;10332;50.208;18.988;2023-05-03T01:52:24;98651.28;;;14.80;84.28
20350;BME280;10332;50.208;18.988;2023-05-03T01:54:53;98661.09;;;14.78;84.23
20350;BME280;10332;50.208;18.988;2023-05-03T01:57:20;98654.16;;;14.77;84.25
20350;BME280;10332;50.208;18.988;2023-05-03T01:59:47;98653.22;;;14.78;84.34
20350;BME280;10332;50.208;18.988;2023-05-03T02:02:15;98657.63;;;14.77;84.23
20350;BME280;10332;50.208;18.988;2023-05-03T02:04:42;98655.34;;;14.73;84.33
20350;BME280;10332;50.208;18.988;2023-05-03T02:07:10;98657.25;;;14.71;84.31
20350;BME280;10332;50.208;18.988;2023-05-03T02:09:37;98655.59;;;14.70;84.22
20350;BME280;10332;50.208;18.988;2023-05-03T02:12:05;98652.00;;;14.71;84.14
20350;BME280;10332;50.208;18.988;2023-05-03T02:14:33;98653.44;;;14.75;84.01
20350;BME280;10332;50.208;18.988;2023-05-03T02:17:00;98651.41;;;14.79;83.94
20350;BME280;10332;50.208;18.988;2023-05-03T02:19:29;98654.63;;;14.82;83.88
20350;BME280;10332;50.208;18.988;2023-05-03T02:21:57;98653.72;;;14.83;83.97
20350;BME280;10332;50.208;18.988;2023-05-03T02:24:24;98653.47;;;14.86;83.73
20350;BME280;10332;50.208;18.988;2023-05-03T02:26:52;98655.84;;;14.89;83.92
20350;BME280;10332;50.208;18.988;2023-05-03T02:29:19;98657.50;;;14.90;83.78
20350;BME280;10332;50.208;18.988;2023-05-03T02:31:46;98659.81;;;14.95;83.94
20350;BME280;10332;50.208;18.988;2023-05-03T02:34:14;98657.06;;;14.96;84.28
20350;BME280;10332;50.208;18.988;2023-05-03T02:36:41;98657.50;;;14.90;84.26
20350;BME280;10332;50.208;18.988;2023-05-03T02:39:09;98656.69;;;14.90;84.04
20350;BME280;10332;50.208;18.988;2023-05-03T02:41:37;98659.81;;;14.84;83.86
20350;BME280;10332;50.208;18.988;2023-05-03T02:44:04;98653.78;;;14.82;84.08
20350;BME280;10332;50.208;18.988;2023-05-03T02:46:32;98659.88;;;14.82;84.10
20350;BME280;10332;50.208;18.988;2023-05-03T02:48:59;98663.34;;;14.83;84.06
20350;BME280;10332;50.208;18.988;2023-05-03T02:51:26;98659.81;;;14.84;84.22
20350;BME280;10332;50.208;18.988;2023-05-03T02:53:54;98666.84;;;14.83;84.11
20350;BME280;10332;50.208;18.988;2023-05-03T02:56:21;98664.09;;;14.85;84.30
20350;BME280;10332;50.208;18.988;2023-05-03T02:58:52;98666.94;;;14.82;84.37
20350;BME280;10332;50.208;18.988;2023-05-03T03:01:20;98667.31;;;14.77;84.60
20350;BME280;10332;50.208;18.988;2023-05-03T03:03:48;98664.94;;;14.74;84.52
20350;BME280;10332;50.208;18.988;2023-05-03T03:06:16;98668.38;;;14.74;84.41
20350;BME280;10332;50.208;18.988;2023-05-03T03:08:44;98667.44;;;14.75;84.32
20350;BME280;10332;50.208;18.988;2023-05-03T03:11:11;98666.09;;;14.70;84.18
20350;BME280;10332;50.208;18.988;2023-05-03T03:13:39;98668.72;;;14.70;84.24
20350;BME280;10332;50.208;18.988;2023-05-03T03:16:07;98667.38;;;14.64;84.30
20350;BME280;10332;50.208;18.988;2023-05-03T03:18:36;98669.91;;;14.66;84.48
20350;BME280;10332;50.208;18.988;2023-05-03T03:21:03;98678.84;;;14.63;84.53
20350;BME280;10332;50.208;18.988;2023-05-03T03:23:31;98676.59;;;14.59;84.52
20350;BME280;10332;50.208;18.988;2023-05-03T03:25:58;98676.72;;;14.57;84.42
20350;BME280;10332;50.208;18.988;2023-05-03T03:28:26;98678.59;;;14.55;85.01
20350;BME280;10332;50.208;18.988;2023-05-03T03:30:53;98669.88;;;14.55;84.98
20350;BME280;10332;50.208;18.988;2023-05-03T03:33:21;98668.19;;;14.54;85.15
20350;BME280;10332;50.208;18.988;2023-05-03T03:35:50;98669.78;;;14.56;84.89
20350;BME280;10332;50.208;18.988;2023-05-03T03:38:18;98676.22;;;14.63;84.93
20350;BME280;10332;50.208;18.988;2023-05-03T03:40:45;98670.00;;;14.64;84.90
20350;BME280;10332;50.208;18.988;2023-05-03T03:43:13;98679.09;;;14.60;84.98
20350;BME280;10332;50.208;18.988;2023-05-03T03:45:40;98680.44;;;14.66;85.02
20350;BME280;10332;50.208;18.988;2023-05-03T03:48:08;98678.28;;;14.71;85.31
20350;BME280;10332;50.208;18.988;2023-05-03T03:50:36;98685.22;;;14.72;85.12
20350;BME280;10332;50.208;18.988;2023-05-03T03:53:03;98690.47;;;14.72;84.81
20350;BME280;10332;50.208;18.988;2023-05-03T03:55:32;98688.59;;;14.74;84.80
20350;BME280;10332;50.208;18.988;2023-05-03T03:57:59;98685.00;;;14.75;84.62
20350;BME280;10332;50.208;18.988;2023-05-03T04:00:27;98685.00;;;14.75;84.68
20350;BME280;10332;50.208;18.988;2023-05-03T04:02:54;98692.88;;;14.75;84.88
20350;BME280;10332;50.208;18.988;2023-05-03T04:05:22;98689.88;;;14.68;85.75
20350;BME280;10332;50.208;18.988;2023-05-03T04:07:50;98695.00;;;14.70;85.35
20350;BME280;10332;50.208;18.988;2023-05-03T04:10:17;98699.47;;;14.45;87.34
20350;BME280;10332;50.208;18.988;2023-05-03T04:12:45;98695.38;;;14.41;87.38
20350;BME280;10332;50.208;18.988;2023-05-03T04:15:12;98696.56;;;14.13;89.07
20350;BME280;10332;50.208;18.988;2023-05-03T04:17:40;98701.69;;;14.15;89.21
20350;BME280;10332;50.208;18.988;2023-05-03T04:20:08;98703.38;;;14.16;89.00
20350;BME280;10332;50.208;18.988;2023-05-03T04:22:40;98701.84;;;14.25;88.19
20350;BME280;10332;50.208;18.988;2023-05-03T04:25:11;98707.47;;;14.20;88.50
20350;BME280;10332;50.208;18.988;2023-05-03T04:27:44;98713.44;;;14.22;88.62
20350;BME280;10332;50.208;18.988;2023-05-03T04:30:12;98717.38;;;14.28;87.99
20350;BME280;10332;50.208;18.988;2023-05-03T04:32:42;98718.84;;;14.32;87.67
20350;BME280;10332;50.208;18.988;2023-05-03T04:35:10;98715.53;;;14.41;87.25
20350;BME280;10332;50.208;18.988;2023-05-03T04:37:40;98720.28;;;14.48;86.90
20350;BME280;10332;50.208;18.988;2023-05-03T04:40:08;98726.72;;;14.56;86.39
20350;BME280;10332;50.208;18.988;2023-05-03T04:42:38;98734.88;;;14.64;86.08
20350;BME280;10332;50.208;18.988;2023-05-03T04:45:06;98734.44;;;14.70;85.80
20350;BME280;10332;50.208;18.988;2023-05-03T04:47:36;98739.44;;;14.73;85.85
20350;BME280;10332;50.208;18.988;2023-05-03T04:50:04;98733.03;;;14.77;85.70
20350;BME280;10332;50.208;18.988;2023-05-03T04:52:33;98739.50;;;14.84;85.37
20350;BME280;10332;50.208;18.988;2023-05-03T04:55:00;98738.56;;;14.85;85.50
20350;BME280;10332;50.208;18.988;2023-05-03T04:57:29;98737.34;;;14.89;85.04
20350;BME280;10332;50.208;18.988;2023-05-03T04:59:57;98742.88;;;14.97;84.63
20350;BME280;10332;50.208;18.988;2023-05-03T05:02:24;98746.22;;;14.99;84.62
20350;BME280;10332;50.208;18.988;2023-05-03T05:04:53;98754.38;;;15.08;84.27
20350;BME280;10332;50.208;18.988;2023-05-03T05:07:20;98754.50;;;15.06;84.29
20350;BME280;10332;50.208;18.988;2023-05-03T05:09:48;98760.25;;;15.11;83.75
20350;BME280;10332;50.208;18.988;2023-05-03T05:12:15;98759.41;;;15.11;83.56
20350;BME280;10332;50.208;18.988;2023-05-03T05:14:43;98766.34;;;15.12;82.92
20350;BME280;10332;50.208;18.988;2023-05-03T05:17:10;98766.09;;;15.15;82.34
20350;BME280;10332;50.208;18.988;2023-05-03T05:19:38;98766.34;;;15.12;82.31
20350;BME280;10332;50.208;18.988;2023-05-03T05:22:05;98774.34;;;15.10;82.13
20350;BME280;10332;50.208;18.988;2023-05-03T05:24:33;98771.72;;;15.10;82.24
20350;BME280;10332;50.208;18.988;2023-05-03T05:27:00;98782.59;;;15.05;82.46
20350;BME280;10332;50.208;18.988;2023-05-03T05:29:27;98782.00;;;15.02;82.08
20350;BME280;10332;50.208;18.988;2023-05-03T05:31:55;98786.03;;;14.95;83.31
20350;BME280;10332;50.208;18.988;2023-05-03T05:34:22;98791.06;;;15.09;82.10
20350;BME280;10332;50.208;18.988;2023-05-03T05:36:50;98790.75;;;15.14;81.71
20350;BME280;10332;50.208;18.988;2023-05-03T05:39:18;98794.31;;;15.13;80.99
20350;BME280;10332;50.208;18.988;2023-05-03T05:41:46;98794.91;;;15.16;80.26
20350;BME280;10332;50.208;18.988;2023-05-03T05:44:13;98799.22;;;15.17;79.75
20350;BME280;10332;50.208;18.988;2023-05-03T05:46:41;98802.94;;;15.26;78.02
20350;BME280;10332;50.208;18.988;2023-05-03T05:49:08;98799.72;;;15.22;77.78
20350;BME280;10332;50.208;18.988;2023-05-03T05:51:36;98798.19;;;15.20;78.00
20350;BME280;10332;50.208;18.988;2023-05-03T05:54:03;98799.59;;;15.13;77.55
20350;BME280;10332;50.208;18.988;2023-05-03T05:56:31;98806.75;;;15.11;77.71
20350;BME280;10332;50.208;18.988;2023-05-03T05:58:58;98814.66;;;15.11;77.45
20350;BME280;10332;50.208;18.988;2023-05-03T06:01:27;98810.31;;;15.10;77.54
20350;BME280;10332;50.208;18.988;2023-05-03T06:03:54;98810.31;;;15.10;77.46
20350;BME280;10332;50.208;18.988;2023-05-03T06:06:22;98815.25;;;15.14;77.35
20350;BME280;10332;50.208;18.988;2023-05-03T06:08:50;98818.94;;;15.12;77.37
20350;BME280;10332;50.208;18.988;2023-05-03T06:11:17;98818.22;;;15.10;76.43
20350;BME280;10332;50.208;18.988;2023-05-03T06:13:45;98822.41;;;15.12;76.39
20350;BME280;10332;50.208;18.988;2023-05-03T06:16:12;98824.97;;;14.90;76.30
20350;BME280;10332;50.208;18.988;2023-05-03T06:18:40;98824.16;;;15.00;76.29
20350;BME280;10332;50.208;18.988;2023-05-03T06:21:07;98829.41;;;15.00;76.10
20350;BME280;10332;50.208;18.988;2023-05-03T06:23:36;98833.50;;;15.04;76.09
20350;BME280;10332;50.208;18.988;2023-05-03T06:26:05;98826.47;;;15.05;75.79
20350;BME280;10332;50.208;18.988;2023-05-03T06:28:34;98830.22;;;14.90;76.67
20350;BME280;10332;50.208;18.988;2023-05-03T06:31:02;98830.59;;;14.96;76.46
20350;BME280;10332;50.208;18.988;2023-05-03T06:33:29;98834.53;;;14.91;76.48
20350;BME280;10332;50.208;18.988;2023-05-03T06:35:57;98832.78;;;15.02;75.90
20350;BME280;10332;50.208;18.988;2023-05-03T06:38:25;98833.28;;;15.08;75.48
20350;BME280;10332;50.208;18.988;2023-05-03T06:40:52;98838.09;;;15.14;75.22
20350;BME280;10332;50.208;18.988;2023-05-03T06:43:20;98839.66;;;15.27;74.97
20350;BME280;10332;50.208;18.988;2023-05-03T06:45:51;98842.91;;;15.20;74.06
20350;BME280;10332;50.208;18.988;2023-05-03T06:48:21;98843.25;;;15.26;74.18
20350;BME280;10332;50.208;18.988;2023-05-03T06:50:49;98845.81;;;15.39;73.68
20350;BME280;10332;50.208;18.988;2023-05-03T06:53:16;98849.16;;;15.52;71.91
20350;BME280;10332;50.208;18.988;2023-05-03T06:55:44;98852.31;;;15.57;72.11
20350;BME280;10332;50.208;18.988;2023-05-03T06:58:12;98856.19;;;15.65;71.87
20350;BME280;10332;50.208;18.988;2023-05-03T07:00:39;98856.06;;;15.88;69.56
20350;BME280;10332;50.208;18.988;2023-05-03T07:03:07;98854.19;;;15.91;69.80
20350;BME280;10332;50.208;18.988;2023-05-03T07:05:35;98864.34;;;15.95;69.42
20350;BME280;10332;50.208;18.988;2023-05-03T07:08:03;98856.19;;;15.76;69.37
20350;BME280;10332;50.208;18.988;2023-05-03T07:10:31;98862.09;;;15.91;68.89
20350;BME280;10332;50.208;18.988;2023-05-03T07:12:58;98859.19;;;15.94;68.71
20350;BME280;10332;50.208;18.988;2023-05-03T07:15:26;98864.72;;;16.02;67.91
20350;BME280;10332;50.208;18.988;2023-05-03T07:17:53;98866.25;;;16.04;68.20
20350;BME280;10332;50.208;18.988;2023-05-03T07:20:20;98859.78;;;15.86;68.51
20350;BME280;10332;50.208;18.988;2023-05-03T07:22:48;98870.44;;;15.73;68.65
20350;BME280;10332;50.208;18.988;2023-05-03T07:25:15;98866.19;;;15.59;68.80
20350;BME280;10332;50.208;18.988;2023-05-03T07:27:43;98871.38;;;15.72;68.26
20350;BME280;10332;50.208;18.988;2023-05-03T07:30:12;98872.94;;;15.86;68.23
20350;BME280;10332;50.208;18.988;2023-05-03T07:32:39;98876.31;;;15.88;67.75
20350;BME280;10332;50.208;18.988;2023-05-03T07:35:07;98881.34;;;15.91;67.66
20350;BME280;10332;50.208;18.988;2023-05-03T07:37:35;98869.00;;;15.80;67.92
20350;BME280;10332;50.208;18.988;2023-05-03T07:40:06;98879.06;;;15.86;66.99
20350;BME280;10332;50.208;18.988;2023-05-03T07:42:34;98879.19;;;16.07;66.76
20350;BME280;10332;50.208;18.988;2023-05-03T07:45:01;98876.66;;;16.06;66.65
20350;BME280;10332;50.208;18.988;2023-05-03T07:47:29;98879.66;;;16.24;66.70
20350;BME280;10332;50.208;18.988;2023-05-03T07:49:57;98871.75;;;16.35;66.41
20350;BME280;10332;50.208;18.988;2023-05-03T07:52:25;98883.72;;;16.50;64.75
20350;BME280;10332;50.208;18.988;2023-05-03T07:54:52;98876.88;;;16.59;64.25
20350;BME280;10332;50.208;18.988;2023-05-03T07:57:20;98882.34;;;16.78;62.30
20350;BME280;10332;50.208;18.988;2023-05-03T07:59:50;98879.44;;;16.92;62.49
20350;BME280;10332;50.208;18.988;2023-05-03T08:02:17;98878.97;;;16.87;61.44
20350;BME280;10332;50.208;18.988;2023-05-03T08:04:45;98882.44;;;16.99;60.06
20350;BME280;10332;50.208;18.988;2023-05-03T08:07:13;98884.63;;;17.15;59.54
20350;BME280;10332;50.208;18.988;2023-05-03T08:09:41;98879.50;;;17.34;58.69
20350;BME280;10332;50.208;18.988;2023-05-03T08:12:08;98879.63;;;17.12;57.68
20350;BME280;10332;50.208;18.988;2023-05-03T08:14:36;98881.22;;;17.03;58.48
20350;BME280;10332;50.208;18.988;2023-05-03T08:17:03;98883.13;;;17.01;58.70
20350;BME280;10332;50.208;18.988;2023-05-03T08:19:31;98885.44;;;17.26;57.89
20350;BME280;10332;50.208;18.988;2023-05-03T08:21:58;98893.28;;;17.38;58.02
20350;BME280;10332;50.208;18.988;2023-05-03T08:24:26;98881.06;;;17.37;58.22
20350;BME280;10332;50.208;18.988;2023-05-03T08:26:54;98878.34;;;17.27;57.90
20350;BME280;10332;50.208;18.988;2023-05-03T08:29:22;98879.38;;;16.83;58.13
20350;BME280;10332;50.208;18.988;2023-05-03T08:31:50;98886.75;;;17.00;59.27
20350;BME280;10332;50.208;18.988;2023-05-03T08:34:19;98886.28;;;16.95;59.04
20350;BME280;10332;50.208;18.988;2023-05-03T08:36:46;98882.44;;;16.88;59.90
20350;BME280;10332;50.208;18.988;2023-05-03T08:39:13;98894.22;;;16.61;60.63
20350;BME280;10332;50.208;18.988;2023-05-03T08:41:41;98885.25;;;16.64;60.88
20350;BME280;10332;50.208;18.988;2023-05-03T08:44:21;98903.31;;;16.80;59.83
20350;BME280;10332;50.208;18.988;2023-05-03T08:46:49;98903.31;;;16.91;59.02
20350;BME280;10332;50.208;18.988;2023-05-03T08:49:17;98904.47;;;16.98;59.11
20350;BME280;10332;50.208;18.988;2023-05-03T08:51:45;98907.47;;;17.05;59.02
20350;BME280;10332;50.208;18.988;2023-05-03T08:54:15;98910.00;;;16.95;59.70
20350;BME280;10332;50.208;18.988;2023-05-03T08:56:44;98913.88;;;16.91;59.74
20350;BME280;10332;50.208;18.988;2023-05-03T08:59:13;98909.75;;;17.09;59.40
20350;BME280;10332;50.208;18.988;2023-05-03T09:01:43;98919.50;;;17.29;58.97
20350;BME280;10332;50.208;18.988;2023-05-03T09:04:11;98914.75;;;17.44;58.72
20350;BME280;10332;50.208;18.988;2023-05-03T09:06:39;98925.69;;;17.60;57.59
20350;BME280;10332;50.208;18.988;2023-05-03T09:09:07;98915.59;;;17.45;56.24
20350;BME280;10332;50.208;18.988;2023-05-03T09:11:37;98918.22;;;17.45;56.56
20350;BME280;10332;50.208;18.988;2023-05-03T09:14:12;98929.47;;;17.26;56.27
20350;BME280;10332;50.208;18.988;2023-05-03T09:16:42;98930.75;;;17.31;56.66
20350;BME280;10332;50.208;18.988;2023-05-03T09:19:14;98930.53;;;17.35;56.74
20350;BME280;10332;50.208;18.988;2023-05-03T09:21:44;98928.25;;;17.30;56.61
20350;BME280;10332;50.208;18.988;2023-05-03T09:24:20;98926.19;;;17.34;56.60
20350;BME280;10332;50.208;18.988;2023-05-03T09:26:50;98930.25;;;17.38;56.89
20350;BME280;10332;50.208;18.988;2023-05-03T09:29:32;98927.97;;;17.44;57.03
20350;BME280;10332;50.208;18.988;2023-05-03T09:32:05;98931.03;;;17.49;57.03
20350;BME280;10332;50.208;18.988;2023-05-03T09:34:34;98934.84;;;17.36;56.65
20350;BME280;10332;50.208;18.988;2023-05-03T09:37:03;98929.09;;;17.51;56.91
20350;BME280;10332;50.208;18.988;2023-05-03T09:39:31;98933.19;;;17.55;56.90
20350;BME280;10332;50.208;18.988;2023-05-03T09:42:17;98936.81;;;17.43;56.88
20350;BME280;10332;50.208;18.988;2023-05-03T09:44:48;98936.19;;;17.51;56.37
20350;BME280;10332;50.208;18.988;2023-05-03T09:47:18;98932.06;;;17.58;56.15
20350;BME280;10332;50.208;18.988;2023-05-03T09:49:46;98941.53;;;17.72;55.93
20350;BME280;10332;50.208;18.988;2023-05-03T09:52:14;98937.50;;;17.77;55.88
20350;BME280;10332;50.208;18.988;2023-05-03T09:54:42;98932.84;;;17.81;55.60
20350;BME280;10332;50.208;18.988;2023-05-03T09:57:11;98934.94;;;17.87;55.59
20350;BME280;10332;50.208;18.988;2023-05-03T09:59:44;98931.09;;;17.91;55.25
20350;BME280;10332;50.208;18.988;2023-05-03T10:02:13;98929.00;;;17.95;54.62
20350;BME280;10332;50.208;18.988;2023-05-03T10:04:46;98934.88;;;17.98;54.39
20350;BME280;10332;50.208;18.988;2023-05-03T10:07:20;98931.00;;;18.02;54.70
20350;BME280;10332;50.208;18.988;2023-05-03T10:09:49;98937.31;;;18.11;54.01
20350;BME280;10332;50.208;18.988;2023-05-03T10:12:18;98933.75;;;18.22;53.85
20350;BME280;10332;50.208;18.988;2023-05-03T10:14:48;98933.03;;;18.20;53.56
20350;BME280;10332;50.208;18.988;2023-05-03T10:17:24;98933.50;;;18.25;52.82
20350;BME280;10332;50.208;18.988;2023-05-03T10:23:30;98932.56;;;18.35;53.45
20350;BME280;10332;50.208;18.988;2023-05-03T10:28:38;98929.56;;;18.19;53.51
20350;BME280;10332;50.208;18.988;2023-05-03T10:31:45;98926.22;;;17.54;53.96
20350;BME280;10332;50.208;18.988;2023-05-03T10:34:25;98929.91;;;17.63;54.60
20350;BME280;10332;50.208;18.988;2023-05-03T10:37:02;98932.41;;;17.65;54.68
20350;BME280;10332;50.208;18.988;2023-05-03T10:39:30;98936.72;;;17.66;54.36
20350;BME280;10332;50.208;18.988;2023-05-03T10:42:06;98935.50;;;17.70;55.12
20350;BME280;10332;50.208;18.988;2023-05-03T10:44:39;98927.34;;;17.73;55.00
20350;BME280;10332;50.208;18.988;2023-05-03T10:47:22;98927.00;;;17.66;55.50
20350;BME280;10332;50.208;18.988;2023-05-03T10:55:19;98928.31;;;17.93;55.52
20350;BME280;10332;50.208;18.988;2023-05-03T10:57:48;98929.84;;;17.95;55.74
20350;BME280;10332;50.208;18.988;2023-05-03T11:06:52;98932.06;;;17.58;55.73
20350;BME280;10332;50.208;18.988;2023-05-03T11:09:31;98931.88;;;17.50;56.60
20350;BME280;10332;50.208;18.988;2023-05-03T11:12:06;98930.66;;;17.54;55.94
20350;BME280;10332;50.208;18.988;2023-05-03T11:14:35;98931.53;;;17.43;56.25
20350;BME280;10332;50.208;18.988;2023-05-03T11:17:03;98934.31;;;17.42;56.15
20350;BME280;10332;50.208;18.988;2023-05-03T11:19:32;98939.59;;;17.42;56.00
20350;BME280;10332;50.208;18.988;2023-05-03T11:22:00;98937.41;;;17.47;55.55
20350;BME280;10332;50.208;18.988;2023-05-03T11:24:28;98932.47;;;17.21;54.58
20350;BME280;10332;50.208;18.988;2023-05-03T11:26:56;98937.47;;;17.36;54.79
20350;BME280;10332;50.208;18.988;2023-05-03T11:29:24;98931.50;;;17.54;54.70
20350;BME280;10332;50.208;18.988;2023-05-03T11:31:52;98932.06;;;17.58;54.90
20350;BME280;10332;50.208;18.988;2023-05-03T11:34:20;98921.91;;;17.53;55.07
20350;BME280;10332;50.208;18.988;2023-05-03T11:36:47;98931.81;;;17.61;54.56
20350;BME280;10332;50.208;18.988;2023-05-03T11:39:15;98929.00;;;17.53;54.82
20350;BME280;10332;50.208;18.988;2023-05-03T11:42:03;98931.81;;;17.61;55.31
20350;BME280;10332;50.208;18.988;2023-05-03T11:44:31;98928.66;;;17.67;55.05
20350;BME280;10332;50.208;18.988;2023-05-03T11:46:59;98928.19;;;17.41;55.43
20350;BME280;10332;50.208;18.988;2023-05-03T11:49:28;98929.44;;;17.58;55.15
20350;BME280;10332;50.208;18.988;2023-05-03T11:51:56;98924.56;;;17.95;54.65
20350;BME280;10332;50.208;18.988;2023-05-03T11:54:24;98926.41;;;18.04;54.66
20350;BME280;10332;50.208;18.988;2023-05-03T11:56:57;98922.38;;;18.00;54.66
20350;BME280;10332;50.208;18.988;2023-05-03T11:59:39;98921.97;;;18.05;54.49
20350;BME280;10332;50.208;18.988;2023-05-03T12:02:08;98919.00;;;18.19;54.24
20350;BME280;10332;50.208;18.988;2023-05-03T12:04:39;98922.41;;;18.40;52.74
20350;BME280;10332;50.208;18.988;2023-05-03T12:07:09;98916.25;;;18.30;52.95
20350;BME280;10332;50.208;18.988;2023-05-03T12:09:40;98921.44;;;18.72;53.01
20350;BME280;10332;50.208;18.988;2023-05-03T12:12:20;98912.28;;;18.95;52.62
20350;BME280;10332;50.208;18.988;2023-05-03T12:15:00;98917.31;;;18.98;52.24
20350;BME280;10332;50.208;18.988;2023-05-03T12:17:38;98917.03;;;19.02;51.06
20350;BME280;10332;50.208;18.988;2023-05-03T12:20:22;98909.22;;;19.00;51.09
20350;BME280;10332;50.208;18.988;2023-05-03T12:22:56;98913.16;;;19.06;51.60
20350;BME280;10332;50.208;18.988;2023-05-03T12:25:27;98916.16;;;18.82;51.57
20350;BME280;10332;50.208;18.988;2023-05-03T12:28:03;98917.59;;;18.55;52.06
20350;BME280;10332;50.208;18.988;2023-05-03T12:30:33;98914.63;;;18.49;53.51
20350;BME280;10332;50.208;18.988;2023-05-03T12:33:01;98909.47;;;18.07;53.29
20350;BME280;10332;50.208;18.988;2023-05-03T12:35:31;98909.19;;;17.79;53.69
20350;BME280;10332;50.208;18.988;2023-05-03T12:38:01;98904.16;;;17.76;54.48
20350;BME280;10332;50.208;18.988;2023-05-03T12:40:37;98911.66;;;17.60;54.80
20350;BME280;10332;50.208;18.988;2023-05-03T12:43:05;98911.72;;;17.49;54.85
20350;BME280;10332;50.208;18.988;2023-05-03T12:45:33;98907.13;;;17.51;55.25
20350;BME280;10332;50.208;18.988;2023-05-03T12:48:01;98902.31;;;17.35;55.23
20350;BME280;10332;50.208;18.988;2023-05-03T12:50:29;98909.97;;;17.59;54.96
20350;BME280;10332;50.208;18.988;2023-05-03T12:52:59;98899.50;;;17.90;54.48
20350;BME280;10332;50.208;18.988;2023-05-03T12:55:29;98905.94;;;18.27;53.70
20350;BME280;10332;50.208;18.988;2023-05-03T12:58:07;98903.69;;;18.63;53.16
20350;BME280;10332;50.208;18.988;2023-05-03T13:00:38;98904.47;;;18.84;51.17
20350;BME280;10332;50.208;18.988;2023-05-03T13:03:25;98901.03;;;19.42;50.73
20350;BME280;10332;50.208;18.988;2023-05-03T13:06:00;98902.28;;;19.57;49.54
20350;BME280;10332;50.208;18.988;2023-05-03T13:08:40;98891.66;;;19.47;49.07
20350;BME280;10332;50.208;18.988;2023-05-03T13:11:16;98890.81;;;19.66;48.94
20350;BME280;10332;50.208;18.988;2023-05-03T13:13:46;98897.53;;;19.32;48.48
20350;BME280;10332;50.208;18.988;2023-05-03T13:16:13;98897.81;;;19.09;48.94
20350;BME280;10332;50.208;18.988;2023-05-03T13:18:41;98890.00;;;19.17;49.44
20350;BME280;10332;50.208;18.988;2023-05-03T13:21:09;98888.03;;;19.77;49.47
20350;BME280;10332;50.208;18.988;2023-05-03T13:23:38;98886.22;;;19.78;48.63
20350;BME280;10332;50.208;18.988;2023-05-03T13:26:05;98889.03;;;20.13;48.28
20350;BME280;10332;50.208;18.988;2023-05-03T13:28:33;98886.56;;;20.02;47.99